createdAt,value
2018-12-16T00:01:42.323Z,24.63
2018-12-16T00:04:18.676Z,24.50
2018-12-16T00:07:02.271Z,25.80
2018-12-16T00:09:34.993Z,23.43
2018-12-16T00:12:16.772Z,26.07
2018-12-16T00:14:48.940Z,23.40
2018-12-16T00:17:30.601Z,23.60
2018-12-16T00:20:02.691Z,23.83
2018-12-16T00:22:56.736Z,22.73
2018-12-16T00:25:29.099Z,23.43
2018-12-16T00:41:21.938Z,21.63
2018-12-16T00:43:53.976Z,25.10
2018-12-16T00:46:39.063Z,24.07
2018-12-16T00:49:10.746Z,24.47
2018-12-16T00:51:53.614Z,23.30
2018-12-16T00:54:25.535Z,24.47
2018-12-16T00:57:06.606Z,23.67
2018-12-16T00:59:38.384Z,24.67
2018-12-16T01:02:40.430Z,23.50
2018-12-16T01:05:12.927Z,24.53
2018-12-16T01:07:58.347Z,23.03
2018-12-16T01:10:30.247Z,24.53
2018-12-16T01:13:11.399Z,23.87
2018-12-16T01:15:43.184Z,25.33
2018-12-16T01:18:28.037Z,24.77
2018-12-16T01:20:59.780Z,24.53
2018-12-16T01:23:41.024Z,25.00
2018-12-16T01:26:12.619Z,27.37
2018-12-16T01:29:00.357Z,23.60
2018-12-16T01:31:32.194Z,24.23
2018-12-16T01:34:13.400Z,24.93
2018-12-16T01:36:45.333Z,24.67
2018-12-16T01:39:26.800Z,24.97
2018-12-16T01:41:58.309Z,25.63
2018-12-16T01:44:43.440Z,25.50
2018-12-16T01:47:15.138Z,24.80
2018-12-16T01:50:09.076Z,24.10
2018-12-16T01:52:40.832Z,25.47
2018-12-16T01:55:25.788Z,25.43
2018-12-16T01:57:58.292Z,26.43
2018-12-16T02:00:39.452Z,23.67
2018-12-16T02:03:11.727Z,26.30
2018-12-16T02:19:24.924Z,25.00
2018-12-16T02:21:56.550Z,25.60
2018-12-16T02:24:41.612Z,25.20
2018-12-16T02:27:13.438Z,24.20
2018-12-16T02:29:54.848Z,25.10
2018-12-16T02:32:26.669Z,24.57
2018-12-16T02:35:08.064Z,26.03
2018-12-16T02:37:39.492Z,25.10
2018-12-16T02:40:20.816Z,23.53
2018-12-16T02:42:52.484Z,27.47
2018-12-16T02:58:35.832Z,25.33
2018-12-16T03:01:07.681Z,26.03
2018-12-16T03:03:48.927Z,25.07
2018-12-16T03:06:20.518Z,26.90
2018-12-16T03:09:06.848Z,26.17
2018-12-16T03:11:39.456Z,27.00
2018-12-16T03:14:24.233Z,26.47
2018-12-16T03:16:55.734Z,26.10
2018-12-16T03:19:40.441Z,26.00
2018-12-16T03:22:12.203Z,26.17
2018-12-16T04:16:59.496Z,37.73
2018-12-16T04:19:30.960Z,28.10
2018-12-16T04:22:11.966Z,26.17
2018-12-16T04:24:43.361Z,27.20
2018-12-16T04:27:33.999Z,26.30
2018-12-16T04:30:06.177Z,24.80
2018-12-16T04:32:51.744Z,25.63
2018-12-16T04:35:23.234Z,23.80
2018-12-16T04:38:04.389Z,24.80
2018-12-16T04:40:35.818Z,23.13
2018-12-16T04:43:20.366Z,23.47
2018-12-16T04:45:51.828Z,27.13
2018-12-16T04:48:39.370Z,24.53
2018-12-16T04:51:10.811Z,24.40
2018-12-16T04:53:52.467Z,23.53
2018-12-16T04:56:23.918Z,25.50
2018-12-16T04:59:08.488Z,23.60
2018-12-16T05:01:40.006Z,24.83
2018-12-16T05:04:21.807Z,23.73
2018-12-16T05:06:53.321Z,23.87
2018-12-16T05:09:40.843Z,21.77
2018-12-16T05:12:12.287Z,24.73
2018-12-16T05:28:09.487Z,22.50
2018-12-16T05:30:40.878Z,21.67
2018-12-16T05:33:25.549Z,23.93
2018-12-16T05:35:57.034Z,23.30
2018-12-16T05:38:41.691Z,24.43
2018-12-16T05:41:13.182Z,22.63
2018-12-16T05:43:54.356Z,21.37
2018-12-16T05:46:25.699Z,22.83
2018-12-16T05:49:06.797Z,23.67
2018-12-16T05:51:38.194Z,22.93
2018-12-16T05:54:22.856Z,23.67
2018-12-16T05:56:54.350Z,23.77
2018-12-16T05:59:35.463Z,23.73
2018-12-16T06:02:06.883Z,22.23
2018-12-16T06:04:47.968Z,23.27
2018-12-16T06:07:19.460Z,21.73
2018-12-16T06:10:00.588Z,22.73
2018-12-16T06:12:32.040Z,22.60
2018-12-16T06:15:13.206Z,23.07
2018-12-16T06:17:44.604Z,23.10
2018-12-16T06:20:25.634Z,21.63
2018-12-16T06:22:57.021Z,22.27
2018-12-16T06:25:38.208Z,23.67
2018-12-16T06:28:09.729Z,21.47
2018-12-16T06:30:57.296Z,21.53
2018-12-16T06:33:28.681Z,21.77
2018-12-16T06:36:13.224Z,21.60
2018-12-16T06:38:44.900Z,21.97
2018-12-16T06:41:29.557Z,19.93
2018-12-16T06:44:01.616Z,22.07
2018-12-16T06:46:42.859Z,20.57
2018-12-16T06:49:14.361Z,21.10
2018-12-16T06:51:58.988Z,22.13
2018-12-16T06:54:31.043Z,21.10
2018-12-16T06:57:12.187Z,20.50
2018-12-16T06:59:43.679Z,20.00
2018-12-16T07:02:24.828Z,19.67
2018-12-16T07:04:56.919Z,22.63
2018-12-16T07:07:41.453Z,19.03
2018-12-16T07:10:12.951Z,21.40
2018-12-16T07:12:54.050Z,21.03
2018-12-16T07:15:25.522Z,18.73
2018-12-16T07:18:13.049Z,21.20
2018-12-16T07:20:44.601Z,21.40
2018-12-16T07:23:32.430Z,21.33
2018-12-16T07:26:03.935Z,20.63
2018-12-16T07:28:45.240Z,23.07
2018-12-16T07:31:16.631Z,23.33
2018-12-16T07:33:57.646Z,21.40
2018-12-16T07:36:29.071Z,22.23
2018-12-16T07:39:16.952Z,19.80
2018-12-16T07:41:48.457Z,21.13
2018-12-16T07:44:29.574Z,21.43
2018-12-16T07:47:01.035Z,20.87
2018-12-16T07:49:42.207Z,21.97
2018-12-16T07:52:13.814Z,22.27
2018-12-16T07:55:10.991Z,21.10
2018-12-16T07:57:42.495Z,21.17
2018-12-16T08:00:27.159Z,22.20
2018-12-16T08:05:40.458Z,22.27
2018-12-16T08:08:11.924Z,21.23
2018-12-16T08:11:02.611Z,21.47
2018-12-16T08:13:34.216Z,21.27
2018-12-16T08:16:15.299Z,23.23
2018-12-16T08:18:46.772Z,20.60
2018-12-16T08:34:32.684Z,21.73
2018-12-16T08:37:04.285Z,19.80
2018-12-16T08:39:51.965Z,21.30
2018-12-16T08:42:23.461Z,20.40
2018-12-16T08:45:08.984Z,21.37
2018-12-16T08:47:40.470Z,22.33
2018-12-16T08:50:25.095Z,21.47
2018-12-16T08:52:56.601Z,19.83
2018-12-16T09:08:49.194Z,20.60
2018-12-16T09:11:20.746Z,21.57
2018-12-16T09:14:01.852Z,20.90
2018-12-16T09:16:33.275Z,21.27
2018-12-16T09:19:26.802Z,21.10
2018-12-16T09:21:58.206Z,21.83
2018-12-16T09:24:39.447Z,21.07
2018-12-16T09:27:10.835Z,22.80
2018-12-16T09:29:52.419Z,23.30
2018-12-16T09:32:25.001Z,20.17
2018-12-16T09:35:06.497Z,21.17
2018-12-16T09:37:38.948Z,21.77
2018-12-16T09:40:20.122Z,20.20
2018-12-16T09:42:51.539Z,22.67
2018-12-16T09:45:33.062Z,20.80
2018-12-16T09:48:04.645Z,22.10
2018-12-16T09:50:49.434Z,19.33
2018-12-16T09:53:21.098Z,20.97
2018-12-16T09:56:02.264Z,20.67
2018-12-16T09:58:33.935Z,19.53
2018-12-16T10:01:18.772Z,21.97
2018-12-16T10:03:50.593Z,19.80
2018-12-16T10:06:35.351Z,19.47
2018-12-16T10:09:09.617Z,21.50
2018-12-16T10:24:54.526Z,19.57
2018-12-16T10:27:26.646Z,20.23
2018-12-16T10:30:10.033Z,20.00
2018-12-16T10:32:41.573Z,19.67
2018-12-16T10:35:26.396Z,19.80
2018-12-16T10:37:58.143Z,20.50
2018-12-16T10:40:39.850Z,21.03
2018-12-16T10:43:12.130Z,20.17
2018-12-16T10:45:53.489Z,20.00
2018-12-16T10:48:25.374Z,21.03
2018-12-16T10:51:06.662Z,21.00
2018-12-16T10:53:38.603Z,19.87
2018-12-16T10:56:23.464Z,20.43
2018-12-16T10:58:55.178Z,22.00
2018-12-16T11:01:39.718Z,20.63
2018-12-16T11:04:11.437Z,20.63
2018-12-16T11:06:53.364Z,20.23
2018-12-16T11:09:25.148Z,20.60
2018-12-16T11:12:22.740Z,20.23
2018-12-16T11:14:54.271Z,18.87
2018-12-16T11:17:35.517Z,19.10
2018-12-16T11:20:07.465Z,19.60
2018-12-16T11:22:49.032Z,17.97
2018-12-16T11:25:20.570Z,18.60
2018-12-16T11:28:05.325Z,18.70
2018-12-16T11:30:37.054Z,19.60
2018-12-16T11:33:18.481Z,19.00
2018-12-16T11:35:50.009Z,18.90
2018-12-16T11:38:31.826Z,18.60
2018-12-16T11:41:03.431Z,18.00
2018-12-16T11:43:44.639Z,19.07
2018-12-16T11:46:16.273Z,19.70
2018-12-16T11:48:57.511Z,18.00
2018-12-16T11:51:29.584Z,19.03
2018-12-16T11:54:10.875Z,19.80
2018-12-16T11:56:42.306Z,19.93
2018-12-16T11:59:26.939Z,19.23
2018-12-16T12:01:58.426Z,19.60
2018-12-16T12:04:45.071Z,20.03
2018-12-16T12:07:16.565Z,21.67
2018-12-16T12:10:01.451Z,20.40
2018-12-16T12:12:32.887Z,18.03
2018-12-16T12:15:15.006Z,19.20
2018-12-16T12:17:47.042Z,20.23
2018-12-16T12:20:28.391Z,19.17
2018-12-16T12:23:00.205Z,20.57
2018-12-16T12:25:44.912Z,19.53
2018-12-16T12:28:16.674Z,21.77
2018-12-16T12:30:59.479Z,21.20
2018-12-16T12:33:31.106Z,19.70
2018-12-16T12:36:18.749Z,19.53
2018-12-16T12:38:50.265Z,19.27
2018-12-16T12:41:41.713Z,21.03
2018-12-16T12:44:13.377Z,19.03
2018-12-16T12:46:54.925Z,19.87
2018-12-16T12:49:26.592Z,20.53
2018-12-16T12:52:11.253Z,20.83
2018-12-16T12:54:42.919Z,20.17
2018-12-16T12:57:25.060Z,18.93
2018-12-16T12:59:56.694Z,19.40
2018-12-16T13:02:38.201Z,19.10
2018-12-16T13:05:09.831Z,18.63
2018-12-16T13:07:54.579Z,19.93
2018-12-16T13:10:26.339Z,17.47
2018-12-16T13:13:08.457Z,19.97
2018-12-16T13:15:40.496Z,18.57
2018-12-16T13:18:22.035Z,18.80
2018-12-16T13:20:53.617Z,19.23
2018-12-16T13:23:34.929Z,23.27
2018-12-16T13:26:07.697Z,22.73
2018-12-16T13:28:54.358Z,19.27
2018-12-16T13:31:26.036Z,20.43
2018-12-16T13:34:07.288Z,18.73
2018-12-16T13:36:39.459Z,19.47
2018-12-16T13:39:20.676Z,20.27
2018-12-16T13:41:52.683Z,20.50
2018-12-16T13:44:34.488Z,19.93
2018-12-16T13:47:06.676Z,20.40
2018-12-16T14:16:50.045Z,19.27
2018-12-16T14:19:22.545Z,20.77
2018-12-16T14:22:16.205Z,20.13
2018-12-16T14:24:48.329Z,21.10
2018-12-16T14:27:41.960Z,22.77
2018-12-16T14:30:14.058Z,23.03
2018-12-16T14:46:18.480Z,26.50
2018-12-16T14:48:50.377Z,22.97
2018-12-16T15:04:55.184Z,20.70
2018-12-16T15:07:27.572Z,23.67
2018-12-16T15:23:46.841Z,20.13
2018-12-16T15:26:19.015Z,22.03
2018-12-16T15:29:00.691Z,22.13
2018-12-16T15:31:32.948Z,21.10
2018-12-16T15:34:14.657Z,21.53
2018-12-16T15:36:46.519Z,20.67
2018-12-16T15:39:27.925Z,23.70
2018-12-16T15:41:59.767Z,22.73
2018-12-16T15:44:41.665Z,22.00
2018-12-16T15:47:13.524Z,22.47
2018-12-16T16:16:34.136Z,20.30
2018-12-16T16:19:06.300Z,20.53
2018-12-16T16:35:02.827Z,22.97
2018-12-16T16:37:35.471Z,21.07
2018-12-16T16:40:21.093Z,20.10
2018-12-16T16:42:53.777Z,23.07
2018-12-16T16:45:39.185Z,23.00
2018-12-16T16:48:10.700Z,21.63
2018-12-16T16:50:51.966Z,21.53
2018-12-16T16:53:24.118Z,20.73
2018-12-16T16:56:06.312Z,20.23
2018-12-16T16:58:38.388Z,19.83
2018-12-16T17:01:20.002Z,30.13
2018-12-16T17:03:51.625Z,22.23
2018-12-16T17:06:37.026Z,22.63
2018-12-16T17:09:10.004Z,20.90
2018-12-16T17:11:54.974Z,21.67
2018-12-16T17:14:27.820Z,20.80
2018-12-16T17:30:20.072Z,21.30
2018-12-16T17:32:52.045Z,21.20
2018-12-16T17:35:33.666Z,21.60
2018-12-16T17:38:05.475Z,22.20
2018-12-16T17:40:48.723Z,20.17
2018-12-16T17:43:20.600Z,23.13
2018-12-16T17:46:02.626Z,23.57
2018-12-16T17:48:34.474Z,23.00
2018-12-16T18:04:22.759Z,21.87
2018-12-16T18:06:54.889Z,22.50
2018-12-16T18:09:36.340Z,21.43
2018-12-16T18:12:08.728Z,21.43
2018-12-16T18:14:50.819Z,21.90
2018-12-16T18:17:23.148Z,22.33
2018-12-16T18:20:06.485Z,23.23
2018-12-16T18:22:38.784Z,21.73
2018-12-16T18:25:23.667Z,22.33
2018-12-16T18:27:55.452Z,23.20
2018-12-16T18:30:46.879Z,21.97
2018-12-16T18:33:18.866Z,23.17
2018-12-16T18:36:00.871Z,22.67
2018-12-16T18:38:33.220Z,22.80
2018-12-16T18:41:18.124Z,25.33
2018-12-16T18:43:49.979Z,23.77
2018-12-16T18:46:31.930Z,23.40
2018-12-16T18:49:03.523Z,23.23
2018-12-16T18:51:45.775Z,23.80
2018-12-16T18:54:18.143Z,21.97
2018-12-16T18:57:06.960Z,23.37
2018-12-16T18:59:35.041Z,23.70
2018-12-16T19:02:16.633Z,23.53
2018-12-16T19:04:48.408Z,23.60
2018-12-16T19:07:29.966Z,22.83
2018-12-16T19:10:02.114Z,24.17
2018-12-16T19:12:48.510Z,23.20
2018-12-16T19:15:21.517Z,25.23
2018-12-16T19:18:09.974Z,24.10
2018-12-16T19:20:41.998Z,22.90
2018-12-16T19:23:27.286Z,22.30
2018-12-16T19:26:00.264Z,24.07
2018-12-16T19:28:45.664Z,26.17
2018-12-16T19:31:18.800Z,27.90
2018-12-16T19:34:07.184Z,25.07
2018-12-16T19:36:39.213Z,23.90
2018-12-16T19:39:20.856Z,24.80
2018-12-16T19:41:53.442Z,24.57
2018-12-16T19:44:35.749Z,22.77
2018-12-16T19:47:08.717Z,22.97
2018-12-16T19:49:50.645Z,23.40
2018-12-16T19:52:22.710Z,23.53
2018-12-16T19:55:10.982Z,26.93
2018-12-16T19:57:43.472Z,26.67
2018-12-16T20:00:29.548Z,27.83
2018-12-16T20:03:01.864Z,25.73
2018-12-16T20:05:55.310Z,22.67
2018-12-16T20:08:29.981Z,21.93
2018-12-16T20:11:18.353Z,22.33
2018-12-16T20:13:51.000Z,23.33
2018-12-16T20:29:49.857Z,21.70
2018-12-16T20:32:22.097Z,21.23
2018-12-16T20:35:10.031Z,22.10
2018-12-16T20:37:43.546Z,20.90
2018-12-16T20:40:29.356Z,30.60
2018-12-16T20:43:02.518Z,22.53
2018-12-16T20:45:47.829Z,20.83
2018-12-16T20:48:19.725Z,23.10
2018-12-16T20:51:05.101Z,20.77
2018-12-16T20:53:37.857Z,21.50
2018-12-16T20:56:23.077Z,21.40
2018-12-16T20:58:55.713Z,21.60
2018-12-16T21:01:37.478Z,21.57
2018-12-16T21:04:09.943Z,21.53
2018-12-16T21:06:51.501Z,21.13
2018-12-16T21:09:24.105Z,20.10
2018-12-16T21:12:14.392Z,21.00
2018-12-16T21:14:51.664Z,21.40
2018-12-16T21:17:44.577Z,21.40
2018-12-16T21:20:16.880Z,20.37
2018-12-16T21:23:03.387Z,18.97
2018-12-16T21:25:35.184Z,27.37
2018-12-16T21:28:22.365Z,31.53
2018-12-16T21:30:54.628Z,29.53
2018-12-16T21:33:35.999Z,27.77
2018-12-16T21:36:08.192Z,24.27
2018-12-16T21:38:49.706Z,19.10
2018-12-16T21:41:21.744Z,19.83
2018-12-16T21:44:07.235Z,19.30
2018-12-16T21:46:39.016Z,21.10
2018-12-16T21:49:21.174Z,19.87
2018-12-16T21:51:52.844Z,20.87
2018-12-16T21:54:34.569Z,20.47
2018-12-16T21:57:06.461Z,21.07
2018-12-16T21:59:54.001Z,20.13
2018-12-16T22:02:26.152Z,20.43
2018-12-16T22:05:15.663Z,24.10
2018-12-16T22:07:48.132Z,22.73
2018-12-16T22:10:29.704Z,22.27
2018-12-16T22:13:01.556Z,21.53
2018-12-16T22:15:43.038Z,21.47
2018-12-16T22:18:14.640Z,19.20
2018-12-16T22:20:59.726Z,19.67
2018-12-16T22:23:32.099Z,19.13
2018-12-16T22:26:17.457Z,19.40
2018-12-16T22:28:49.408Z,19.27
2018-12-16T22:31:31.012Z,18.93
2018-12-16T22:34:03.048Z,20.57
2018-12-16T22:36:47.873Z,19.73
2018-12-16T22:39:19.721Z,19.43
2018-12-16T22:42:04.580Z,18.97
2018-12-16T22:44:36.447Z,19.13
2018-12-16T22:47:17.826Z,20.97
2018-12-16T22:49:49.653Z,19.00
2018-12-16T22:52:31.169Z,20.87
2018-12-16T22:55:02.942Z,18.60
2018-12-16T22:57:49.101Z,19.77
2018-12-16T23:00:21.111Z,18.90
2018-12-16T23:03:12.404Z,20.30
2018-12-16T23:05:44.874Z,19.17
2018-12-16T23:08:26.273Z,23.03
2018-12-16T23:10:57.978Z,19.77
2018-12-16T23:13:39.673Z,20.83
2018-12-16T23:16:11.687Z,21.13
2018-12-16T23:18:56.857Z,18.93
2018-12-16T23:21:29.050Z,21.33
2018-12-16T23:24:13.837Z,20.43
2018-12-16T23:26:45.834Z,19.97
2018-12-16T23:29:33.746Z,19.60
2018-12-16T23:32:05.505Z,20.50
2018-12-16T23:34:51.637Z,20.57
2018-12-16T23:37:23.314Z,20.03
2018-12-16T23:40:08.633Z,20.50
2018-12-16T23:42:40.431Z,20.53
2018-12-16T23:45:21.880Z,19.23
2018-12-16T23:47:53.510Z,19.60
2018-12-16T23:50:35.339Z,20.17
2018-12-16T23:53:09.200Z,22.07
2018-12-16T23:55:50.826Z,21.23
2018-12-16T23:58:22.753Z,21.47
